Time;durP1;ratioP1;P1;durP2;ratioP2;P2;SDS_P1;SDS_P2;PMS_P1;PMS_P2;Temp;Humidity;BMP_temperature;BMP_pressure;BME280_temperature;BME280_humidity;BME280_pressure;Samples;Min_cycle;Max_cycle;Signal;HPM_P1;HPM_P2
2021/05/25 00:00:31;;;;;;;5.35;3.33;;;;;;;25.03;46.30;101707.63;143723;654;47012;-67
2021/05/25 00:02:57;;;;;;;6.15;2.87;;;;;;;24.93;46.10;101695.50;143724;581;47005;-67
2021/05/25 00:05:29;;;;;;;15.40;2.75;;;;;;;24.91;46.18;101702.38;143723;588;47002;-68
2021/05/25 00:07:57;;;;;;;4.35;2.37;;;;;;;24.93;45.78;101692.75;143724;579;47004;-67
2021/05/25 00:10:28;;;;;;;5.12;2.62;;;;;;;24.97;45.50;101693.03;143725;588;47009;-67
2021/05/25 00:12:55;;;;;;;5.40;2.10;;;;;;;24.98;45.62;101689.16;143723;574;46010;-68
2021/05/25 00:15:24;;;;;;;9.50;3.22;;;;;;;24.98;45.38;101686.41;143718;584;48000;-67
2021/05/25 00:17:52;;;;;;;10.27;2.87;;;;;;;24.96;46.01;101678.47;143725;575;47005;-67
2021/05/25 00:20:27;;;;;;;7.03;2.50;;;;;;;24.93;45.42;101681.75;143726;605;46010;-63
2021/05/25 00:23:06;;;;;;;9.50;2.90;;;;;;;24.92;45.08;101679.28;143730;569;45010;-64
2021/05/25 00:25:39;;;;;;;5.05;2.20;;;;;;;24.93;44.95;101680.94;143729;600;45921;-65
2021/05/25 00:28:07;;;;;;;3.40;2.22;;;;;;;24.92;44.80;101671.84;143730;617;46010;-67
2021/05/25 00:30:33;;;;;;;4.72;2.25;;;;;;;24.93;45.00;101669.94;143725;629;46032;-68
2021/05/25 00:33:00;;;;;;;5.80;2.47;;;;;;;24.93;45.68;101670.75;143723;566;47004;-67
2021/05/25 00:35:28;;;;;;;8.93;2.55;;;;;;;24.95;45.47;101665.81;143726;579;46006;-67
2021/05/25 00:37:55;;;;;;;4.43;2.70;;;;;;;24.92;45.98;101673.78;143724;601;47006;-67
2021/05/25 00:40:22;;;;;;;6.75;3.55;;;;;;;24.88;46.27;101665.28;143725;660;46012;-67
2021/05/25 00:42:49;;;;;;;4.30;2.62;;;;;;;24.84;45.89;101658.66;143721;633;47004;-67
2021/05/25 00:45:16;;;;;;;4.78;2.15;;;;;;;24.80;46.47;101652.06;143726;567;46008;-67
2021/05/25 00:47:43;;;;;;;6.45;2.55;;;;;;;24.78;46.42;101651.50;143725;567;47004;-68
2021/05/25 00:50:21;;;;;;;4.60;2.20;;;;;;;24.79;46.35;101644.91;143725;586;46920;-67
2021/05/25 00:52:50;;;;;;;4.50;2.50;;;;;;;24.76;46.29;101646.28;143723;658;47006;-67
2021/05/25 00:55:23;;;;;;;6.15;2.53;;;;;;;24.76;46.19;101643.53;143725;583;46008;-67
2021/05/25 00:57:50;;;;;;;7.45;2.40;;;;;;;24.73;46.34;101644.09;143725;627;47004;-67
2021/05/25 01:00:20;;;;;;;7.85;2.45;;;;;;;24.71;46.06;101643.53;143724;596;46919;-67
2021/05/25 01:02:46;;;;;;;4.45;2.40;;;;;;;24.75;45.88;101643.81;143721;573;47006;-67
2021/05/25 01:05:15;;;;;;;5.05;2.72;;;;;;;24.71;45.92;101648.22;143725;588;46008;-68
2021/05/25 01:07:42;;;;;;;6.03;2.50;;;;;;;24.68;46.57;101636.63;143725;611;47004;-67
2021/05/25 01:10:10;;;;;;;6.70;2.60;;;;;;;24.66;46.13;101647.06;143724;573;46010;-68
2021/05/25 01:12:48;;;;;;;7.68;3.10;;;;;;;24.64;46.30;101648.41;143721;567;47006;-68
2021/05/25 01:15:17;;;;;;;6.90;3.47;;;;;;;24.61;46.20;101644.31;143725;583;46008;-67
2021/05/25 01:17:43;;;;;;;9.32;3.30;;;;;;;24.62;46.71;101647.88;143723;600;47002;-68
2021/05/25 01:20:11;;;;;;;8.48;5.32;;;;;;;24.63;47.00;101653.09;143723;590;47010;-67
2021/05/25 01:22:37;;;;;;;10.73;4.60;;;;;;;24.64;47.00;101651.16;143723;589;47006;-68
2021/05/25 01:25:14;;;;;;;8.07;3.25;;;;;;;24.60;46.70;101647.34;143725;573;46009;-67
2021/05/25 01:27:41;;;;;;;3.83;2.75;;;;;;;24.55;46.40;101644.56;143723;584;47002;-67
2021/05/25 01:30:10;;;;;;;7.75;3.17;;;;;;;24.51;46.47;101645.09;143725;587;46010;-67
2021/05/25 01:32:36;;;;;;;6.43;2.70;;;;;;;24.47;46.60;101643.16;143721;650;47007;-67
2021/05/25 01:35:04;;;;;;;4.10;2.67;;;;;;;24.44;47.02;101649.19;143724;589;46008;-67
2021/05/25 01:37:31;;;;;;;4.28;2.85;;;;;;;24.46;46.52;101653.31;143725;631;47004;-69
2021/05/25 01:39:58;;;;;;;6.47;2.85;;;;;;;24.44;47.09;101655.53;143724;647;47008;-67
2021/05/25 01:42:32;;;;;;;7.55;3.08;;;;;;;24.43;47.07;101647.53;143727;597;46934;-67
2021/05/25 01:44:58;;;;;;;;;;;;;;;24.44;46.96;101639.06;143730;984;46008;-67
2021/05/25 01:47:24;;;;;;;4.62;2.83;;;;;;;24.45;46.68;101640.69;143730;573;47002;-67
2021/05/25 01:49:51;;;;;;;5.22;2.78;;;;;;;24.46;47.07;101638.78;143724;573;46010;-67
2021/05/25 01:52:19;;;;;;;7.00;2.87;;;;;;;24.45;47.35;101646.16;143722;585;47006;-67
2021/05/25 01:54:46;;;;;;;5.55;2.58;;;;;;;24.49;47.45;101649.22;143726;614;46008;-67
2021/05/25 01:57:13;;;;;;;7.18;2.58;;;;;;;24.47;47.42;101645.91;143724;682;47004;-66
2021/05/25 01:59:39;;;;;;;6.03;2.92;;;;;;;24.45;47.40;101637.13;143725;593;46010;-67
2021/05/25 02:02:06;;;;;;;6.35;2.80;;;;;;;24.45;47.06;101642.63;143720;581;47007;-67
2021/05/25 02:04:33;;;;;;;9.88;2.20;;;;;;;24.47;47.33;101643.97;143723;584;46008;-67
2021/05/25 02:06:59;;;;;;;7.68;2.80;;;;;;;24.47;47.31;101651.41;143724;596;47002;-68
2021/05/25 02:09:26;;;;;;;9.63;2.90;;;;;;;24.41;47.67;101642.34;143725;659;46012;-67
2021/05/25 02:11:52;;;;;;;11.12;3.90;;;;;;;24.38;47.27;101646.44;143722;666;47004;-67
2021/05/25 02:14:19;;;;;;;6.30;3.40;;;;;;;24.36;47.12;101645.88;143722;622;47008;-68
2021/05/25 02:16:45;;;;;;;6.62;3.55;;;;;;;24.30;46.97;101654.34;143725;589;47004;-67
2021/05/25 02:19:12;;;;;;;3.85;2.85;;;;;;;24.24;46.38;101647.22;143726;686;46023;-67
2021/05/25 02:21:38;;;;;;;11.10;3.50;;;;;;;24.20;46.15;101647.75;143723;626;47004;-67
2021/05/25 02:24:05;;;;;;;7.95;2.78;;;;;;;24.20;46.26;101646.91;143724;771;46926;-67
2021/05/25 02:26:31;;;;;;;7.97;3.35;;;;;;;24.20;46.25;101641.41;143727;619;46006;-68
2021/05/25 02:28:58;;;;;;;7.22;3.10;;;;;;;24.16;46.43;101638.38;143719;627;47004;-67
2021/05/25 02:31:24;;;;;;;8.20;3.03;;;;;;;24.16;46.81;101638.38;143722;577;47006;-68
2021/05/25 02:33:51;;;;;;;9.18;3.03;;;;;;;24.13;46.99;101640.84;143723;577;46008;-66
2021/05/25 02:36:17;;;;;;;5.35;2.53;;;;;;;24.11;46.44;101643.03;143724;575;47002;-67
2021/05/25 02:38:43;;;;;;;6.43;3.30;;;;;;;24.11;46.67;101648.53;143723;680;47008;-67
2021/05/25 02:41:10;;;;;;;8.63;2.83;;;;;;;24.10;46.53;101649.63;143720;568;47006;-67
2021/05/25 02:43:36;;;;;;;4.97;3.15;;;;;;;24.09;46.40;101646.06;143725;574;46008;-68
2021/05/25 02:46:03;;;;;;;8.55;2.83;;;;;;;24.07;46.98;101649.06;143724;618;47004;-67
2021/05/25 02:48:29;;;;;;;4.90;2.50;;;;;;;24.05;46.88;101653.97;143725;576;46011;-66
2021/05/25 02:50:56;;;;;;;7.55;2.97;;;;;;;24.00;46.94;101653.97;143724;636;47006;-68
2021/05/25 02:53:22;;;;;;;6.53;2.65;;;;;;;24.01;47.05;101655.59;143723;586;47006;-67
2021/05/25 02:55:49;;;;;;;8.27;3.00;;;;;;;24.03;47.16;101661.66;143725;664;47005;-69
2021/05/25 02:58:15;;;;;;;10.00;3.90;;;;;;;24.05;47.21;101661.41;143723;642;47006;-68
2021/05/25 03:00:45;;;;;;;10.85;6.97;;;;;;;24.03;47.41;101666.34;143721;577;47006;-68
2021/05/25 03:03:13;;;;;;;7.47;3.55;;;;;;;24.00;47.11;101659.47;143724;671;46008;-67
2021/05/25 03:05:41;;;;;;;11.18;3.80;;;;;;;24.03;46.83;101672.62;143726;647;47002;-68
2021/05/25 03:08:09;;;;;;;6.03;3.70;;;;;;;23.99;46.58;101676.19;143723;572;47012;-68
2021/05/25 03:10:38;;;;;;;6.35;3.22;;;;;;;23.98;46.97;101671.78;143721;717;47006;-67
2021/05/25 03:13:05;;;;;;;8.57;3.95;;;;;;;23.97;47.27;101670.97;143724;687;46006;-68
2021/05/25 03:15:35;;;;;;;7.40;3.20;;;;;;;23.96;47.25;101674.78;143723;648;47004;-68
2021/05/25 03:18:02;;;;;;;6.62;2.97;;;;;;;23.93;47.32;101672.56;143725;567;47009;-69
2021/05/25 03:20:29;;;;;;;8.07;3.55;;;;;;;23.94;47.20;101665.97;143724;634;47004;-68
2021/05/25 03:22:56;;;;;;;9.07;3.45;;;;;;;23.95;47.21;101669.53;143726;592;46008;-67
2021/05/25 03:25:23;;;;;;;6.80;3.08;;;;;;;24.00;46.91;101666.84;143727;743;47006;-67
2021/05/25 03:27:50;;;;;;;5.07;2.37;;;;;;;23.97;46.85;101679.19;143721;601;47008;-68
2021/05/25 03:30:19;;;;;;;10.93;3.15;;;;;;;23.99;46.58;101678.94;143724;638;47004;-67
2021/05/25 03:32:46;;;;;;;6.72;3.17;;;;;;;24.01;46.66;101682.22;143725;588;46008;-68
2021/05/25 03:35:16;;;;;;;6.30;3.28;;;;;;;24.06;46.69;101679.53;143725;629;47002;-68
2021/05/25 03:37:42;;;;;;;5.35;3.60;;;;;;;24.09;46.29;101681.75;143726;631;46010;-67
2021/05/25 03:40:10;;;;;;;8.73;3.60;;;;;;;24.14;46.72;101680.94;143722;632;47007;-68
2021/05/25 03:42:37;;;;;;;7.57;3.60;;;;;;;24.17;46.41;101683.16;143726;587;46006;-68
2021/05/25 03:45:06;;;;;;;9.30;3.45;;;;;;;24.19;46.31;101678.19;143725;585;47004;-68
2021/05/25 03:47:32;;;;;;;7.55;3.62;;;;;;;24.20;46.65;101671.63;143722;568;47013;-68
2021/05/25 03:50:08;;;;;;;8.75;2.95;;;;;;;24.21;47.82;101667.78;143723;572;47006;-68
2021/05/25 03:52:35;;;;;;;10.18;3.28;;;;;;;24.16;47.24;101665.03;143724;566;46922;-67
2021/05/25 03:55:05;;;;;;;7.30;3.40;;;;;;;24.14;46.72;101678.19;143725;693;47002;-68
2021/05/25 04:00:18;;;;;;;8.88;3.33;;;;;;;24.10;46.85;101677.06;143722;577;47006;-67
2021/05/25 04:02:45;;;;;;;13.57;3.35;;;;;;;24.09;47.23;101683.66;143723;588;46006;-67
2021/05/25 04:05:12;;;;;;;6.32;3.12;;;;;;;24.12;47.10;101683.12;143727;585;47000;-67
2021/05/25 04:07:38;;;;;;;6.30;2.87;;;;;;;24.12;47.52;101677.63;143726;604;46026;-67
2021/05/25 04:10:06;;;;;;;8.73;2.78;;;;;;;24.15;47.15;101686.16;143721;606;47006;-68
2021/05/25 04:12:32;;;;;;;9.15;3.60;;;;;;;24.18;47.41;101682.88;143723;594;46006;-66
2021/05/25 04:14:59;;;;;;;9.02;3.95;;;;;;;24.24;47.54;101694.69;143721;678;48002;-68
2021/05/25 04:17:25;;;;;;;9.40;3.20;;;;;;;24.24;47.62;101688.41;143723;744;47012;-66
2021/05/25 04:19:52;;;;;;;9.88;3.08;;;;;;;24.26;47.71;101691.69;143722;647;47006;-68
2021/05/25 04:22:18;;;;;;;10.73;3.10;;;;;;;24.31;47.42;101691.69;143724;659;46925;-67
2021/05/25 04:24:45;;;;;;;9.02;2.75;;;;;;;24.31;47.69;101687.06;143728;669;47000;-67
2021/05/25 04:27:11;;;;;;;8.55;2.87;;;;;;;24.32;46.85;101685.97;143726;575;46929;-68
2021/05/25 04:29:37;;;;;;;5.80;2.30;;;;;;;24.33;46.42;101687.63;143723;578;47006;-68
2021/05/25 04:32:06;;;;;;;11.35;3.00;;;;;;;24.38;46.60;101689.53;143726;606;46006;-68
2021/05/25 04:34:33;;;;;;;7.90;2.85;;;;;;;24.45;46.24;101684.63;143723;711;47006;-66
2021/05/25 04:36:59;;;;;;;6.70;2.40;;;;;;;24.49;46.72;101682.19;143724;569;47010;-66
2021/05/25 04:39:26;;;;;;;9.68;2.85;;;;;;;24.52;47.03;101682.44;143724;572;47004;-66
2021/05/25 04:41:52;;;;;;;9.10;2.67;;;;;;;24.58;47.05;101688.78;143726;588;46008;-69
2021/05/25 04:44:19;;;;;;;8.57;3.08;;;;;;;24.66;46.23;101681.94;143724;601;47002;-67
2021/05/25 04:46:45;;;;;;;5.32;2.58;;;;;;;24.71;46.41;101678.44;143726;611;46010;-69
2021/05/25 04:49:11;;;;;;;6.18;2.90;;;;;;;24.76;46.10;101679.25;143724;597;47010;-68
2021/05/25 04:51:38;;;;;;;6.30;3.42;;;;;;;24.79;46.00;101681.47;143725;569;46924;-68
2021/05/25 04:54:04;;;;;;;5.45;3.25;;;;;;;24.83;46.10;101677.06;143726;674;47010;-68
2021/05/25 04:56:33;;;;;;;8.38;3.60;;;;;;;24.89;45.99;101679.81;143724;610;46012;-68
2021/05/25 04:59:00;;;;;;;8.00;3.30;;;;;;;24.93;46.08;101680.94;143723;595;47004;-67
2021/05/25 05:01:28;;;;;;;16.40;3.95;;;;;;;24.97;46.86;101682.88;143725;576;46019;-68
2021/05/25 05:03:55;;;;;;;18.70;3.53;;;;;;;25.01;46.48;101685.88;143722;559;47004;-67
2021/05/25 05:06:21;;;;;;;6.25;3.03;;;;;;;25.04;46.34;101684.53;143724;664;47010;-68
2021/05/25 05:08:48;;;;;;;7.47;3.10;;;;;;;25.11;45.98;101690.56;143724;589;47004;-68
2021/05/25 05:11:14;;;;;;;9.15;3.83;;;;;;;25.15;45.43;101697.19;143726;573;46008;-68
2021/05/25 05:13:40;;;;;;;10.00;3.42;;;;;;;25.18;45.39;101696.62;143728;611;46008;-67
2021/05/25 05:16:07;;;;;;;5.93;3.20;;;;;;;25.20;45.29;101697.19;143725;584;47010;-68
2021/05/25 05:18:33;;;;;;;12.63;4.07;;;;;;;25.25;45.46;101699.09;143723;567;47004;-67
2021/05/25 05:21:00;;;;;;;4.90;3.17;;;;;;;25.28;45.17;101704.87;143725;572;46008;-67
2021/05/25 05:23:26;;;;;;;8.00;3.10;;;;;;;25.30;45.59;101701.03;143726;684;47002;-68
2021/05/25 05:25:52;;;;;;;12.27;3.62;;;;;;;25.36;45.12;101706.25;143727;573;46004;-67
2021/05/25 05:28:20;;;;;;;10.35;3.30;;;;;;;25.42;45.37;101707.09;143722;575;47004;-62
2021/05/25 05:30:46;;;;;;;10.13;3.55;;;;;;;25.44;44.60;101702.16;143727;647;46006;-68
2021/05/25 05:33:14;;;;;;;18.05;4.22;;;;;;;25.49;45.37;101702.16;143727;719;47006;-68
2021/05/25 05:35:43;;;;;;;12.30;3.50;;;;;;;25.56;45.02;101694.47;143726;601;47012;-62
2021/05/25 05:38:13;;;;;;;10.80;3.22;;;;;;;25.63;44.99;101702.44;143729;661;46002;-64
2021/05/25 05:40:41;;;;;;;8.18;2.80;;;;;;;25.68;44.71;101701.59;143728;609;46008;-66
2021/05/25 05:43:08;;;;;;;12.23;3.50;;;;;;;25.75;45.04;101701.31;143724;600;47002;-68
2021/05/25 05:45:35;;;;;;;9.27;2.72;;;;;;;25.80;43.81;101693.84;143725;583;47012;-69
2021/05/25 05:48:01;;;;;;;12.00;2.75;;;;;;;25.86;43.41;101695.50;143723;626;47004;-68
2021/05/25 05:50:28;;;;;;;9.75;3.05;;;;;;;25.93;43.34;101694.41;143724;574;46016;-68
2021/05/25 05:52:55;;;;;;;8.57;2.83;;;;;;;25.98;43.71;101706.22;143726;586;47006;-68
2021/05/25 05:55:21;;;;;;;19.90;3.28;;;;;;;25.99;42.50;101694.09;143726;604;46013;-67
2021/05/25 05:57:48;;;;;;;4.20;2.15;;;;;;;26.03;42.98;101697.94;143723;589;47004;-68
2021/05/25 06:00:16;;;;;;;8.35;2.90;;;;;;;25.98;42.11;101692.47;143727;573;46016;-64
2021/05/25 06:02:42;;;;;;;9.70;2.90;;;;;;;25.98;42.23;101689.69;143727;574;47006;-67
2021/05/25 06:05:09;;;;;;;5.80;3.10;;;;;;;26.06;41.99;101690.22;143726;610;46010;-68
2021/05/25 06:07:36;;;;;;;9.68;2.97;;;;;;;26.14;41.84;101681.44;143724;609;47004;-68
2021/05/25 06:10:04;;;;;;;6.82;3.75;;;;;;;26.18;42.36;101679.75;143726;592;46006;-70
2021/05/25 06:12:30;;;;;;;8.77;3.15;;;;;;;26.20;42.18;101683.06;143723;566;47004;-68
2021/05/25 06:14:57;;;;;;;8.32;2.87;;;;;;;26.28;42.12;101689.91;143725;608;46012;-67
2021/05/25 06:17:23;;;;;;;5.12;3.12;;;;;;;26.34;42.29;101680.50;143724;610;47004;-66
2021/05/25 06:19:50;;;;;;;6.82;3.15;;;;;;;26.37;42.02;101685.47;143727;626;46008;-68
2021/05/25 06:22:21;;;;;;;5.75;3.22;;;;;;;26.29;42.70;101681.34;143727;577;47004;-66
2021/05/25 06:24:48;;;;;;;9.85;3.15;;;;;;;26.27;42.88;101678.06;143725;582;46011;-68
2021/05/25 06:27:16;;;;;;;8.27;2.92;;;;;;;26.28;42.20;101674.19;143724;678;47006;-67
2021/05/25 06:29:44;;;;;;;9.90;3.58;;;;;;;26.32;41.84;101679.97;143726;573;46930;-67
2021/05/25 06:32:11;;;;;;;6.62;3.33;;;;;;;26.41;42.54;101675.53;143728;596;47000;-67
2021/05/25 06:34:37;;;;;;;4.87;2.65;;;;;;;26.41;41.21;101678.28;143725;586;47012;-70
2021/05/25 06:37:03;;;;;;;7.97;3.10;;;;;;;26.48;40.90;101666.94;143724;613;47007;-67
2021/05/25 06:39:30;;;;;;;8.27;2.97;;;;;;;26.53;41.29;101669.69;143724;581;47006;-67
2021/05/25 06:41:56;;;;;;;9.57;2.58;;;;;;;26.53;42.00;101672.44;143728;601;47006;-71
2021/05/25 06:44:23;;;;;;;12.02;2.95;;;;;;;26.57;42.11;101667.19;143724;585;47010;-70
2021/05/25 06:46:49;;;;;;;8.68;3.47;;;;;;;26.67;41.79;101669.84;143724;590;47006;-69
2021/05/25 06:49:16;;;;;;;10.00;5.53;;;;;;;26.70;41.22;101677.56;143724;605;46006;-70
2021/05/25 06:51:43;;;;;;;7.57;4.18;;;;;;;26.75;41.16;101669.28;143725;576;47004;-70
2021/05/25 06:54:11;;;;;;;7.55;4.62;;;;;;;26.86;41.50;101664.53;143725;604;47011;-69
2021/05/25 06:56:38;;;;;;;7.72;3.15;;;;;;;26.90;40.47;101664.78;143722;612;47004;-68
2021/05/25 06:59:04;;;;;;;6.45;3.35;;;;;;;26.91;41.29;101667.28;143725;587;46009;-72
2021/05/25 07:01:31;;;;;;;7.60;2.92;;;;;;;26.88;41.95;101670.59;143727;578;47005;-73
2021/05/25 07:03:57;;;;;;;10.70;3.05;;;;;;;26.91;41.71;101672.78;143725;615;47010;-71
2021/05/25 07:06:26;;;;;;;6.75;2.95;;;;;;;26.86;42.40;101664.53;143726;606;47006;-71
2021/05/25 07:08:53;;;;;;;5.47;2.70;;;;;;;26.99;42.43;101670.50;143728;627;46008;-71
2021/05/25 07:11:20;;;;;;;6.60;2.95;;;;;;;27.04;42.61;101667.72;143727;614;47004;-71
2021/05/25 07:13:48;;;;;;;6.35;3.15;;;;;;;27.09;42.11;101667.69;143726;592;46010;-70
2021/05/25 07:16:14;;;;;;;8.88;3.03;;;;;;;27.16;43.08;101661.84;143728;629;46010;-72
2021/05/25 07:18:41;;;;;;;4.37;2.58;;;;;;;27.08;41.77;101664.09;143727;569;46006;-70
2021/05/25 07:21:08;;;;;;;5.37;2.65;;;;;;;27.09;42.52;101673.22;143727;573;47000;-67
2021/05/25 07:23:35;;;;;;;5.90;2.45;;;;;;;27.00;41.92;101675.75;143725;670;47012;-69
2021/05/25 07:26:04;;;;;;;10.27;2.53;;;;;;;26.85;42.68;101678.59;143721;614;47925;-69
2021/05/25 07:28:30;;;;;;;5.72;2.78;;;;;;;26.81;43.46;101674.78;143728;644;46006;-67
2021/05/25 07:30:57;;;;;;;5.03;2.60;;;;;;;26.76;42.73;101670.06;143726;604;47006;-68
2021/05/25 07:33:24;;;;;;;8.70;2.85;;;;;;;26.80;43.76;101671.19;143726;577;47012;-67
2021/05/25 07:35:51;;;;;;;4.93;2.50;;;;;;;26.80;44.32;101670.38;143723;659;47004;-68
2021/05/25 07:38:17;;;;;;;7.90;2.83;;;;;;;26.88;44.22;101675.28;143727;631;46009;-67
2021/05/25 07:40:44;;;;;;;8.88;2.72;;;;;;;26.98;44.27;101677.97;143727;593;47004;-68
2021/05/25 07:43:10;;;;;;;3.80;2.70;;;;;;;27.05;43.39;101678.47;143725;626;47010;-68
2021/05/25 07:45:37;;;;;;;5.00;2.58;;;;;;;27.09;43.19;101675.97;143723;609;47004;-70
2021/05/25 07:48:05;;;;;;;6.18;2.92;;;;;;;27.05;43.17;101661.09;143725;591;46008;-69
2021/05/25 07:50:31;;;;;;;6.87;2.90;;;;;;;26.99;43.64;101671.34;143724;604;47002;-68
2021/05/25 07:52:58;;;;;;;4.15;2.80;;;;;;;27.03;43.94;101669.66;143727;624;46009;-70
2021/05/25 07:55:27;;;;;;;10.20;3.67;;;;;;;27.14;44.12;101669.59;143727;638;46011;-67
2021/05/25 07:57:54;;;;;;;5.25;2.60;;;;;;;27.21;43.48;101670.06;143728;574;46006;-66
2021/05/25 08:00:21;;;;;;;6.43;2.83;;;;;;;27.19;43.00;101672.28;143725;590;47002;-68
2021/05/25 08:02:48;;;;;;;7.32;2.83;;;;;;;27.08;42.96;101661.34;143725;567;47012;-68
2021/05/25 08:05:16;;;;;;;9.85;3.00;;;;;;;27.17;42.61;101669.00;143727;599;47002;-69
2021/05/25 08:07:43;;;;;;;6.90;2.58;;;;;;;27.16;42.88;101664.59;143728;598;46009;-66
2021/05/25 08:10:11;;;;;;;6.68;3.00;;;;;;;27.21;42.81;101664.53;143726;646;46012;-67
2021/05/25 08:12:38;;;;;;;5.20;2.90;;;;;;;27.34;42.63;101663.91;143729;617;46008;-66
2021/05/25 08:15:07;;;;;;;6.93;2.83;;;;;;;27.39;43.03;101660.25;143724;577;47004;-66
2021/05/25 08:20:21;;;;;;;3.58;2.62;;;;;;;27.35;42.71;101672.97;143727;625;47008;-69
2021/05/25 08:22:56;;;;;;;6.43;2.60;;;;;;;27.43;42.83;101658.56;143729;605;46010;-67
2021/05/25 08:25:26;;;;;;;5.55;2.72;;;;;;;27.35;42.74;101667.47;143725;626;47006;-69
2021/05/25 08:27:54;;;;;;;5.78;2.55;;;;;;;27.39;42.53;101669.34;143728;589;46006;-68
2021/05/25 08:30:26;;;;;;;6.68;2.90;;;;;;;27.58;42.58;101670.59;143727;593;47000;-65
2021/05/25 08:32:54;;;;;;;7.18;2.72;;;;;;;27.70;42.55;101668.25;143725;595;47012;-68
2021/05/25 08:35:21;;;;;;;10.45;2.95;;;;;;;27.84;42.07;101665.62;143723;577;47006;-68
2021/05/25 08:37:51;;;;;;;4.40;2.47;;;;;;;27.79;40.92;101663.75;143725;581;46008;-67
2021/05/25 08:40:18;;;;;;;4.45;2.50;;;;;;;27.81;40.78;101667.03;143727;570;47002;-69
2021/05/25 08:42:46;;;;;;;7.93;2.85;;;;;;;27.95;41.08;101669.09;143726;580;47012;-68
2021/05/25 08:45:14;;;;;;;8.32;2.65;;;;;;;27.94;40.18;101673.78;143723;603;47006;-67
2021/05/25 08:47:42;;;;;;;4.15;2.70;;;;;;;28.02;40.47;101671.50;143726;637;47006;-68
2021/05/25 08:50:11;;;;;;;5.55;2.50;;;;;;;28.07;39.71;101671.44;143724;637;47002;-69
2021/05/25 08:52:38;;;;;;;8.23;3.20;;;;;;;27.97;40.33;101658.59;143727;567;46013;-66
2021/05/25 08:55:10;;;;;;;4.35;2.90;;;;;;;28.01;39.74;101656.06;143723;592;47006;-67
2021/05/25 08:57:37;;;;;;;7.95;2.70;;;;;;;28.11;39.05;101651.25;143727;584;46006;-68
2021/05/25 09:00:08;;;;;;;5.22;2.60;;;;;;;28.23;38.49;101647.25;143725;573;47004;-67
2021/05/25 09:02:34;;;;;;;7.15;2.67;;;;;;;28.37;38.88;101642.63;143725;570;47010;-66
2021/05/25 09:05:13;;;;;;;6.37;2.72;;;;;;;28.47;38.88;101649.16;143727;585;46024;-66
2021/05/25 09:07:53;;;;;;;5.07;2.42;;;;;;;28.55;39.19;101642.94;143727;573;46007;-66
2021/05/25 09:10:45;;;;;;;5.78;2.72;;;;;;;28.50;39.47;101643.84;143725;572;47002;-66
2021/05/25 09:13:16;;;;;;;4.65;3.37;;;;;;;28.49;39.89;101633.91;143727;598;47010;-66
2021/05/25 09:15:48;;;;;;;5.62;3.08;;;;;;;28.59;40.52;101635.69;143725;631;47007;-66
2021/05/25 09:18:20;;;;;;;4.18;3.20;;;;;;;28.61;40.50;101627.94;143723;591;47006;-67
2021/05/25 09:20:55;;;;;;;9.05;2.70;;;;;;;28.51;40.31;101637.19;143727;623;47004;-69
2021/05/25 09:23:45;;;;;;;4.78;2.90;;;;;;;28.39;40.58;101626.56;143725;592;47013;-67
2021/05/25 09:26:34;;;;;;;4.37;3.12;;;;;;;28.41;40.96;101629.87;143726;586;47004;-66
2021/05/25 09:29:09;;;;;;;3.42;2.47;;;;;;;28.45;41.00;101621.78;143726;587;47006;-66
2021/05/25 09:31:43;;;;;;;7.05;2.85;;;;;;;28.53;41.42;101614.75;143726;570;47004;-66
2021/05/25 09:34:15;;;;;;;6.47;2.87;;;;;;;28.48;41.74;101617.63;143725;584;47012;-63
2021/05/25 09:37:08;;;;;;;3.78;2.30;;;;;;;28.55;41.13;101616.13;143725;577;47004;-59
2021/05/25 09:40:04;;;;;;;7.75;2.60;;;;;;;28.73;40.70;101608.12;143728;664;46008;-60
2021/05/25 09:42:30;;;;;;;7.87;2.40;;;;;;;28.78;40.44;101598.94;143729;575;47000;-59
2021/05/25 09:44:59;;;;;;;5.57;2.33;;;;;;;28.92;40.18;101599.81;143722;624;47006;-60
2021/05/25 09:47:45;;;;;;;6.15;2.47;;;;;;;29.04;39.74;101608.44;143724;593;47006;-60
2021/05/25 09:50:16;;;;;;;6.80;2.60;;;;;;;29.16;40.04;101605.19;143729;584;46020;-60
2021/05/25 09:53:10;;;;;;;5.70;2.90;;;;;;;29.29;40.23;101606.37;143726;582;47004;-62
2021/05/25 09:55:55;;;;;;;;;;;;;;;29.20;40.00;101597.13;143732;984;46012;-61
2021/05/25 09:58:37;;;;;;;5.72;2.90;;;;;;;29.09;40.40;101607.56;143729;614;47004;-61
2021/05/25 10:01:05;;;;;;;6.75;3.12;;;;;;;29.01;41.02;101605.47;143728;583;46008;-61
2021/05/25 10:03:35;;;;;;;4.18;2.28;;;;;;;29.14;41.04;101601.91;143725;593;47006;-62
2021/05/25 10:06:02;;;;;;;5.65;2.80;;;;;;;29.22;41.15;101594.84;143727;597;46010;-60
2021/05/25 10:08:29;;;;;;;3.90;2.15;;;;;;;29.22;40.43;101600.38;143726;585;47006;-61
2021/05/25 10:10:58;;;;;;;3.40;2.25;;;;;;;29.16;41.02;101596.09;143726;609;46006;-61
2021/05/25 10:13:27;;;;;;;6.30;2.47;;;;;;;29.14;40.73;101595.56;143726;568;47004;-63
2021/05/25 10:15:53;;;;;;;3.60;2.62;;;;;;;29.15;41.30;101600.78;143724;573;47010;-64
2021/05/25 10:18:50;;;;;;;5.53;2.78;;;;;;;29.04;41.17;101593.81;143725;592;47006;-64
2021/05/25 10:21:18;;;;;;;7.78;2.55;;;;;;;29.16;40.72;101596.91;143727;668;46007;-66
2021/05/25 10:23:44;;;;;;;7.00;2.60;;;;;;;29.09;41.35;101588.19;143729;582;46016;-63
2021/05/25 10:26:19;;;;;;;2.92;1.98;;;;;;;29.21;41.36;101582.19;143728;588;46012;-62
2021/05/25 10:28:48;;;;;;;7.15;2.37;;;;;;;29.36;40.93;101581.09;143725;670;47006;-62
2021/05/25 10:31:35;;;;;;;6.78;3.08;;;;;;;29.51;40.89;101577.22;143727;570;46006;-64
2021/05/25 10:34:36;;;;;;;3.45;2.35;;;;;;;29.65;40.26;101575.25;143724;678;47004;-62
2021/05/25 10:37:05;;;;;;;6.25;2.70;;;;;;;29.62;40.02;101573.09;143726;594;46013;-63
2021/05/25 10:39:43;;;;;;;6.60;2.65;;;;;;;29.45;40.25;101575.66;143723;635;47004;-63
2021/05/25 10:42:38;;;;;;;5.90;3.08;;;;;;;29.42;40.18;101577.09;143725;693;46009;-63
2021/05/25 10:45:16;;;;;;;3.03;2.40;;;;;;;29.31;40.37;101568.16;143728;677;47002;-62
2021/05/25 10:48:07;;;;;;;5.72;2.90;;;;;;;29.23;40.46;101566.06;143724;583;47008;-63
2021/05/25 10:50:37;;;;;;;3.45;2.70;;;;;;;29.16;40.50;101558.19;143725;721;47004;-63
2021/05/25 10:53:27;;;;;;;5.90;2.83;;;;;;;29.38;40.71;101567.78;143727;666;46022;-63
2021/05/25 10:55:54;;;;;;;2.92;2.42;;;;;;;29.38;40.99;101565.00;143727;652;47004;-63
2021/05/25 10:58:32;;;;;;;2.85;2.17;;;;;;;29.31;40.40;101570.91;143727;609;47008;-63
2021/05/25 11:01:01;;;;;;;5.50;2.97;;;;;;;29.28;41.02;101565.19;143722;567;47006;-64
2021/05/25 11:03:28;;;;;;;4.28;2.33;;;;;;;29.24;41.15;101564.94;143724;603;46006;-64
2021/05/25 11:06:02;;;;;;;6.35;2.10;;;;;;;29.30;40.76;101555.44;143723;682;47004;-62
2021/05/25 11:08:37;;;;;;;10.25;2.47;;;;;;;29.24;40.94;101553.06;143724;580;47010;-69
2021/05/25 11:11:08;;;;;;;6.80;2.78;;;;;;;29.41;40.77;101553.31;143723;652;47004;-66
2021/05/25 11:13:48;;;;;;;5.62;2.65;;;;;;;29.57;41.04;101551.06;143725;598;46009;-65
2021/05/25 11:16:46;;;;;;;5.45;2.45;;;;;;;29.76;40.90;101541.81;143725;644;47004;-65
2021/05/25 11:19:34;;;;;;;26.00;23.55;;;;;;;29.89;40.69;101538.22;143724;683;46012;-65
2021/05/25 11:22:11;;;;;;;5.32;3.37;;;;;;;29.90;40.58;101533.47;143721;589;47006;-64
2021/05/25 11:25:06;;;;;;;5.72;2.50;;;;;;;29.80;40.30;101520.69;143724;580;46006;-64
2021/05/25 11:27:44;;;;;;;5.47;2.60;;;;;;;29.65;40.41;101508.81;143723;735;47004;-65
2021/05/25 11:30:30;;;;;;;17.10;8.95;;;;;;;29.53;40.74;101510.47;143726;578;46013;-62
2021/05/25 11:32:58;;;;;;;9.70;2.75;;;;;;;29.58;40.30;101505.63;143720;605;47004;-64
2021/05/25 11:35:33;;;;;;;6.97;2.40;;;;;;;29.63;40.68;101507.50;143723;589;46007;-62
2021/05/25 11:38:03;;;;;;;6.85;2.30;;;;;;;29.62;40.49;101508.63;143723;651;47002;-62
2021/05/25 11:40:39;;;;;;;3.97;2.55;;;;;;;29.70;40.09;101498.78;143725;616;47012;-66